sensor_id;sensor_type;location;lat;lon;timestamp;pressure;altitude;pressure_sealevel;temperature;humidity
77153;BME280;66124;51.146;17.072;2023-03-14T00:01:58;98459.58;;;11.36;57.70
77153;BME280;66124;51.146;17.072;2023-03-14T00:04:28;98461.95;;;11.35;58.09
77153;BME280;66124;51.146;17.072;2023-03-14T00:06:57;98463.20;;;11.34;57.99
77153;BME280;66124;51.146;17.072;2023-03-14T00:09:27;98451.42;;;11.33;57.75
77153;BME280;66124;51.146;17.072;2023-03-14T00:11:59;98445.17;;;11.33;57.84
77153;BME280;66124;51.146;17.072;2023-03-14T00:14:28;98440.98;;;11.31;57.78
77153;BME280;66124;51.146;17.072;2023-03-14T00:17:00;98441.67;;;11.30;58.31
77153;BME280;66124;51.146;17.072;2023-03-14T00:19:28;98449.51;;;11.26;57.99
77153;BME280;66124;51.146;17.072;2023-03-14T00:24:39;98456.02;;;11.21;58.42
77153;BME280;66124;51.146;17.072;2023-03-14T00:27:08;98451.92;;;11.13;58.38
77153;BME280;66124;51.146;17.072;2023-03-14T00:29:38;98444.97;;;11.09;58.61
77153;BME280;66124;51.146;17.072;2023-03-14T00:32:07;98432.41;;;11.07;58.25
77153;BME280;66124;51.146;17.072;2023-03-14T00:34:36;98428.81;;;11.07;58.58
77153;BME280;66124;51.146;17.072;2023-03-14T00:37:07;98425.23;;;11.07;58.56
77153;BME280;66124;51.146;17.072;2023-03-14T00:39:37;98418.50;;;11.07;58.62
77153;BME280;66124;51.146;17.072;2023-03-14T00:42:06;98421.05;;;11.08;58.66
77153;BME280;66124;51.146;17.072;2023-03-14T00:44:36;98418.15;;;11.09;59.02
77153;BME280;66124;51.146;17.072;2023-03-14T00:47:05;98420.14;;;11.08;59.04
77153;BME280;66124;51.146;17.072;2023-03-14T00:49:35;98426.43;;;11.09;59.14
77153;BME280;66124;51.146;17.072;2023-03-14T00:52:05;98430.58;;;11.08;59.41
77153;BME280;66124;51.146;17.072;2023-03-14T00:54:34;98432.66;;;11.05;59.17
77153;BME280;66124;51.146;17.072;2023-03-14T00:57:04;98443.61;;;11.02;59.64
77153;BME280;66124;51.146;17.072;2023-03-14T00:59:33;98466.94;;;10.98;59.39
77153;BME280;66124;51.146;17.072;2023-03-14T01:02:02;98501.35;;;10.93;59.58
77153;BME280;66124;51.146;17.072;2023-03-14T01:04:32;98501.34;;;10.85;59.71
77153;BME280;66124;51.146;17.072;2023-03-14T01:07:01;98491.64;;;10.77;59.93
77153;BME280;66124;51.146;17.072;2023-03-14T01:09:30;98485.13;;;10.72;60.03
77153;BME280;66124;51.146;17.072;2023-03-14T01:12:00;98476.77;;;10.69;59.88
77153;BME280;66124;51.146;17.072;2023-03-14T01:14:29;98471.52;;;10.68;60.06
77153;BME280;66124;51.146;17.072;2023-03-14T01:16:58;98445.65;;;10.67;60.26
77153;BME280;66124;51.146;17.072;2023-03-14T01:19:28;98434.45;;;10.67;60.27
77153;BME280;66124;51.146;17.072;2023-03-14T01:21:57;98446.38;;;10.67;60.63
77153;BME280;66124;51.146;17.072;2023-03-14T01:24:26;98458.35;;;10.67;60.58
77153;BME280;66124;51.146;17.072;2023-03-14T01:26:56;98455.64;;;10.68;60.70
77153;BME280;66124;51.146;17.072;2023-03-14T01:29:25;98443.13;;;10.71;60.72
77153;BME280;66124;51.146;17.072;2023-03-14T01:31:54;98441.13;;;10.75;60.31
77153;BME280;66124;51.146;17.072;2023-03-14T01:34:24;98443.40;;;10.81;60.34
77153;BME280;66124;51.146;17.072;2023-03-14T01:36:51;98441.88;;;10.88;60.45
77153;BME280;66124;51.146;17.072;2023-03-14T01:44:28;98406.32;;;11.00;61.15
77153;BME280;66124;51.146;17.072;2023-03-14T01:46:57;98403.11;;;10.98;60.92
77153;BME280;66124;51.146;17.072;2023-03-14T01:49:28;98393.58;;;10.98;61.15
77153;BME280;66124;51.146;17.072;2023-03-14T01:52:01;98384.12;;;11.00;60.79
77153;BME280;66124;51.146;17.072;2023-03-14T01:54:35;98373.62;;;11.02;60.64
77153;BME280;66124;51.146;17.072;2023-03-14T01:57:10;98353.51;;;11.04;60.98
77153;BME280;66124;51.146;17.072;2023-03-14T01:59:42;98346.23;;;11.06;61.12
77153;BME280;66124;51.146;17.072;2023-03-14T02:02:13;98347.77;;;11.07;61.32
77153;BME280;66124;51.146;17.072;2023-03-14T02:04:45;98352.71;;;11.05;61.91
77153;BME280;66124;51.146;17.072;2023-03-14T02:07:17;98339.11;;;11.03;62.09
77153;BME280;66124;51.146;17.072;2023-03-14T02:09:48;98329.41;;;11.01;62.31
77153;BME280;66124;51.146;17.072;2023-03-14T02:12:19;98327.63;;;10.98;62.11
77153;BME280;66124;51.146;17.072;2023-03-14T02:14:49;98296.09;;;10.94;62.70
77153;BME280;66124;51.146;17.072;2023-03-14T02:17:20;98283.90;;;10.91;62.89
77153;BME280;66124;51.146;17.072;2023-03-14T02:20:10;98283.80;;;10.87;63.19
77153;BME280;66124;51.146;17.072;2023-03-14T02:22:44;98288.64;;;10.82;63.38
77153;BME280;66124;51.146;17.072;2023-03-14T02:25:19;98290.62;;;10.77;63.80
77153;BME280;66124;51.146;17.072;2023-03-14T02:27:51;98290.10;;;10.72;63.76
77153;BME280;66124;51.146;17.072;2023-03-14T02:30:23;98281.38;;;10.67;63.87
77153;BME280;66124;51.146;17.072;2023-03-14T02:32:57;98271.07;;;10.60;63.99
77153;BME280;66124;51.146;17.072;2023-03-14T02:35:29;98264.83;;;10.51;64.07
77153;BME280;66124;51.146;17.072;2023-03-14T02:38:06;98249.39;;;10.46;63.85
77153;BME280;66124;51.146;17.072;2023-03-14T02:40:38;98247.70;;;10.39;63.91
77153;BME280;66124;51.146;17.072;2023-03-14T02:43:08;98248.42;;;10.34;63.84
77153;BME280;66124;51.146;17.072;2023-03-14T02:45:40;98243.11;;;10.30;64.01
77153;BME280;66124;51.146;17.072;2023-03-14T02:48:15;98237.05;;;10.26;63.79
77153;BME280;66124;51.146;17.072;2023-03-14T02:50:47;98248.75;;;10.24;64.19
77153;BME280;66124;51.146;17.072;2023-03-14T02:53:20;98245.67;;;10.23;63.98
77153;BME280;66124;51.146;17.072;2023-03-14T02:55:51;98247.79;;;10.26;63.82
77153;BME280;66124;51.146;17.072;2023-03-14T03:03:27;98221.25;;;10.45;62.97
77153;BME280;66124;51.146;17.072;2023-03-14T03:05:57;98200.89;;;10.49;62.94
77153;BME280;66124;51.146;17.072;2023-03-14T03:08:28;98185.70;;;10.51;62.79
77153;BME280;66124;51.146;17.072;2023-03-14T03:10:58;98195.36;;;10.58;62.44
77153;BME280;66124;51.146;17.072;2023-03-14T03:13:27;98194.42;;;10.62;62.37
77153;BME280;66124;51.146;17.072;2023-03-14T03:15:56;98200.30;;;10.65;61.90
77153;BME280;66124;51.146;17.072;2023-03-14T03:18:26;98202.11;;;10.68;61.82
77153;BME280;66124;51.146;17.072;2023-03-14T03:20:56;98201.06;;;10.71;61.51
77153;BME280;66124;51.146;17.072;2023-03-14T03:23:28;98193.68;;;10.75;61.15
77153;BME280;66124;51.146;17.072;2023-03-14T03:25:57;98183.27;;;10.81;61.26
77153;BME280;66124;51.146;17.072;2023-03-14T03:28:27;98179.17;;;10.86;60.88
77153;BME280;66124;51.146;17.072;2023-03-14T03:30:56;98179.42;;;10.90;60.94
77153;BME280;66124;51.146;17.072;2023-03-14T03:33:26;98189.60;;;10.94;60.84
77153;BME280;66124;51.146;17.072;2023-03-14T03:35:55;98175.96;;;10.97;60.64
77153;BME280;66124;51.146;17.072;2023-03-14T03:38:24;98181.44;;;10.99;60.73
77153;BME280;66124;51.146;17.072;2023-03-14T03:40:54;98182.27;;;11.00;60.74
77153;BME280;66124;51.146;17.072;2023-03-14T03:43:23;98176.22;;;11.02;60.21
77153;BME280;66124;51.146;17.072;2023-03-14T03:45:52;98177.95;;;11.03;60.20
77153;BME280;66124;51.146;17.072;2023-03-14T03:48:22;98158.79;;;11.03;60.38
77153;BME280;66124;51.146;17.072;2023-03-14T03:50:51;98155.29;;;11.02;60.53
77153;BME280;66124;51.146;17.072;2023-03-14T03:53:20;98147.71;;;11.01;60.34
77153;BME280;66124;51.146;17.072;2023-03-14T03:55:50;98140.32;;;11.00;60.37
77153;BME280;66124;51.146;17.072;2023-03-14T03:58:19;98146.21;;;10.99;60.27
77153;BME280;66124;51.146;17.072;2023-03-14T04:00:48;98151.70;;;10.99;60.20
77153;BME280;66124;51.146;17.072;2023-03-14T04:03:18;98152.80;;;10.99;60.20
77153;BME280;66124;51.146;17.072;2023-03-14T04:05:57;98136.71;;;10.99;60.04
77153;BME280;66124;51.146;17.072;2023-03-14T04:08:26;98137.33;;;11.00;60.17
77153;BME280;66124;51.146;17.072;2023-03-14T04:10:58;98142.64;;;10.99;60.05
77153;BME280;66124;51.146;17.072;2023-03-14T04:13:26;98137.02;;;11.00;60.05
77153;BME280;66124;51.146;17.072;2023-03-14T04:15:54;98129.60;;;11.02;59.98
77153;BME280;66124;51.146;17.072;2023-03-14T04:23:31;98125.71;;;11.07;59.81
77153;BME280;66124;51.146;17.072;2023-03-14T04:26:00;98123.85;;;11.09;59.41
77153;BME280;66124;51.146;17.072;2023-03-14T04:28:30;98113.83;;;11.13;59.34
77153;BME280;66124;51.146;17.072;2023-03-14T04:30:59;98105.09;;;11.16;59.35
77153;BME280;66124;51.146;17.072;2023-03-14T04:33:35;98097.30;;;11.20;59.14
77153;BME280;66124;51.146;17.072;2023-03-14T04:36:06;98087.08;;;11.23;59.33
77153;BME280;66124;51.146;17.072;2023-03-14T04:38:36;98080.70;;;11.26;59.40
77153;BME280;66124;51.146;17.072;2023-03-14T04:41:06;98077.09;;;11.28;59.45
77153;BME280;66124;51.146;17.072;2023-03-14T04:43:36;98081.66;;;11.30;59.41
77153;BME280;66124;51.146;17.072;2023-03-14T04:46:06;98091.11;;;11.33;59.25
77153;BME280;66124;51.146;17.072;2023-03-14T04:48:35;98101.28;;;11.35;58.94
77153;BME280;66124;51.146;17.072;2023-03-14T04:51:06;98103.08;;;11.35;58.96
77153;BME280;66124;51.146;17.072;2023-03-14T04:53:35;98102.70;;;11.39;58.66
77153;BME280;66124;51.146;17.072;2023-03-14T04:56:06;98092.80;;;11.42;58.72
77153;BME280;66124;51.146;17.072;2023-03-14T04:58:36;98088.30;;;11.44;58.79
77153;BME280;66124;51.146;17.072;2023-03-14T05:01:06;98088.55;;;11.45;58.51
77153;BME280;66124;51.146;17.072;2023-03-14T05:03:36;98093.77;;;11.46;58.61
77153;BME280;66124;51.146;17.072;2023-03-14T05:06:07;98090.16;;;11.46;58.62
77153;BME280;66124;51.146;17.072;2023-03-14T05:08:36;98087.46;;;11.47;58.57
77153;BME280;66124;51.146;17.072;2023-03-14T05:11:06;98088.52;;;11.47;58.44
77153;BME280;66124;51.146;17.072;2023-03-14T05:13:36;98092.23;;;11.48;58.18
77153;BME280;66124;51.146;17.072;2023-03-14T05:16:07;98086.42;;;11.48;58.75
77153;BME280;66124;51.146;17.072;2023-03-14T05:18:35;98085.58;;;11.47;58.83
77153;BME280;66124;51.146;17.072;2023-03-14T05:21:05;98080.91;;;11.44;59.14
77153;BME280;66124;51.146;17.072;2023-03-14T05:23:35;98075.08;;;11.42;59.34
77153;BME280;66124;51.146;17.072;2023-03-14T05:26:05;98075.87;;;11.39;59.36
77153;BME280;66124;51.146;17.072;2023-03-14T05:28:34;98066.95;;;11.36;59.66
77153;BME280;66124;51.146;17.072;2023-03-14T05:31:08;98052.40;;;11.34;60.07
77153;BME280;66124;51.146;17.072;2023-03-14T05:33:35;98052.00;;;11.30;60.33
77153;BME280;66124;51.146;17.072;2023-03-14T05:41:50;98057.90;;;11.17;61.13
77153;BME280;66124;51.146;17.072;2023-03-14T05:44:19;98062.67;;;11.10;61.37
77153;BME280;66124;51.146;17.072;2023-03-14T05:46:48;98064.31;;;11.04;61.68
77153;BME280;66124;51.146;17.072;2023-03-14T05:49:18;98072.38;;;10.99;62.31
77153;BME280;66124;51.146;17.072;2023-03-14T05:51:47;98086.58;;;10.95;62.02
77153;BME280;66124;51.146;17.072;2023-03-14T05:54:18;98091.02;;;10.90;62.29
77153;BME280;66124;51.146;17.072;2023-03-14T05:56:47;98081.45;;;10.86;62.49
77153;BME280;66124;51.146;17.072;2023-03-14T05:59:17;98088.21;;;10.82;62.75
77153;BME280;66124;51.146;17.072;2023-03-14T06:01:46;98094.52;;;10.79;63.01
77153;BME280;66124;51.146;17.072;2023-03-14T06:04:16;98086.73;;;10.74;63.36
77153;BME280;66124;51.146;17.072;2023-03-14T06:06:45;98080.02;;;10.70;63.42
77153;BME280;66124;51.146;17.072;2023-03-14T06:09:14;98077.48;;;10.67;63.44
77153;BME280;66124;51.146;17.072;2023-03-14T06:11:44;98082.77;;;10.66;63.62
77153;BME280;66124;51.146;17.072;2023-03-14T06:14:13;98090.95;;;10.64;63.65
77153;BME280;66124;51.146;17.072;2023-03-14T06:16:43;98093.32;;;10.63;63.56
77153;BME280;66124;51.146;17.072;2023-03-14T06:19:13;98098.52;;;10.65;64.11
77153;BME280;66124;51.146;17.072;2023-03-14T06:21:42;98088.60;;;10.68;63.85
77153;BME280;66124;51.146;17.072;2023-03-14T06:24:11;98085.16;;;10.72;63.68
77153;BME280;66124;51.146;17.072;2023-03-14T06:26:41;98093.31;;;10.76;64.04
77153;BME280;66124;51.146;17.072;2023-03-14T06:29:10;98095.09;;;10.81;63.92
77153;BME280;66124;51.146;17.072;2023-03-14T06:31:40;98106.24;;;10.85;63.94
77153;BME280;66124;51.146;17.072;2023-03-14T06:34:09;98114.98;;;10.88;63.78
77153;BME280;66124;51.146;17.072;2023-03-14T06:36:38;98123.75;;;10.92;63.62
77153;BME280;66124;51.146;17.072;2023-03-14T06:39:07;98127.77;;;10.94;63.60
77153;BME280;66124;51.146;17.072;2023-03-14T06:41:37;98123.09;;;10.98;63.43
77153;BME280;66124;51.146;17.072;2023-03-14T06:44:07;98118.05;;;10.99;63.44
77153;BME280;66124;51.146;17.072;2023-03-14T06:46:36;98119.59;;;11.05;63.51
77153;BME280;66124;51.146;17.072;2023-03-14T06:49:06;98118.22;;;11.10;63.36
77153;BME280;66124;51.146;17.072;2023-03-14T06:51:35;98113.16;;;11.13;62.49
77153;BME280;66124;51.146;17.072;2023-03-14T06:54:03;98118.79;;;11.17;62.36
77153;BME280;66124;51.146;17.072;2023-03-14T07:01:39;98129.92;;;11.34;62.04
77153;BME280;66124;51.146;17.072;2023-03-14T07:04:09;98141.97;;;11.37;61.99
77153;BME280;66124;51.146;17.072;2023-03-14T07:06:39;98144.55;;;11.43;61.55
77153;BME280;66124;51.146;17.072;2023-03-14T07:09:08;98138.98;;;11.46;61.26
77153;BME280;66124;51.146;17.072;2023-03-14T07:11:38;98134.39;;;11.49;61.60
77153;BME280;66124;51.146;17.072;2023-03-14T07:14:08;98129.36;;;11.52;61.44
77153;BME280;66124;51.146;17.072;2023-03-14T07:16:37;98132.48;;;11.55;61.31
77153;BME280;66124;51.146;17.072;2023-03-14T07:19:07;98138.16;;;11.56;61.11
77153;BME280;66124;51.146;17.072;2023-03-14T07:21:36;98141.16;;;11.56;61.21
77153;BME280;66124;51.146;17.072;2023-03-14T07:24:06;98145.92;;;11.56;60.98
77153;BME280;66124;51.146;17.072;2023-03-14T07:26:35;98145.98;;;11.54;60.74
77153;BME280;66124;51.146;17.072;2023-03-14T07:29:05;98144.91;;;11.50;60.73
77153;BME280;66124;51.146;17.072;2023-03-14T07:31:35;98143.17;;;11.48;60.25
77153;BME280;66124;51.146;17.072;2023-03-14T07:34:04;98132.17;;;11.46;60.56
77153;BME280;66124;51.146;17.072;2023-03-14T07:36:34;98125.36;;;11.46;60.87
77153;BME280;66124;51.146;17.072;2023-03-14T07:39:04;98119.05;;;11.45;60.62
77153;BME280;66124;51.146;17.072;2023-03-14T07:41:34;98113.97;;;11.44;60.70
77153;BME280;66124;51.146;17.072;2023-03-14T07:44:03;98117.95;;;11.43;60.50
77153;BME280;66124;51.146;17.072;2023-03-14T07:46:32;98115.86;;;11.42;60.57
77153;BME280;66124;51.146;17.072;2023-03-14T07:49:02;98099.45;;;11.41;60.49
77153;BME280;66124;51.146;17.072;2023-03-14T07:51:31;98085.98;;;11.41;60.69
77153;BME280;66124;51.146;17.072;2023-03-14T07:54:00;98077.77;;;11.39;60.64
77153;BME280;66124;51.146;17.072;2023-03-14T07:56:30;98083.63;;;11.39;60.67
77153;BME280;66124;51.146;17.072;2023-03-14T07:58:59;98087.08;;;11.37;61.04
77153;BME280;66124;51.146;17.072;2023-03-14T08:01:28;98096.33;;;11.35;60.85
77153;BME280;66124;51.146;17.072;2023-03-14T08:03:58;98112.98;;;11.33;60.91
77153;BME280;66124;51.146;17.072;2023-03-14T08:06:27;98114.98;;;11.31;60.83
77153;BME280;66124;51.146;17.072;2023-03-14T08:08:57;98111.06;;;11.27;61.04
77153;BME280;66124;51.146;17.072;2023-03-14T08:11:26;98099.77;;;11.24;61.11
77153;BME280;66124;51.146;17.072;2023-03-14T08:13:54;98093.90;;;11.21;61.19
77153;BME280;66124;51.146;17.072;2023-03-14T08:20:17;98122.00;;;11.17;61.11
77153;BME280;66124;51.146;17.072;2023-03-14T08:22:47;98123.30;;;11.11;61.23
77153;BME280;66124;51.146;17.072;2023-03-14T08:25:17;98124.61;;;11.10;61.14
77153;BME280;66124;51.146;17.072;2023-03-14T08:27:46;98123.05;;;11.09;61.31
77153;BME280;66124;51.146;17.072;2023-03-14T08:30:17;98125.79;;;11.08;61.29
77153;BME280;66124;51.146;17.072;2023-03-14T08:32:47;98133.30;;;11.08;61.45
77153;BME280;66124;51.146;17.072;2023-03-14T08:35:17;98142.21;;;11.07;61.52
77153;BME280;66124;51.146;17.072;2023-03-14T08:37:47;98149.06;;;11.07;61.71
77153;BME280;66124;51.146;17.072;2023-03-14T08:40:17;98161.63;;;11.07;61.88
77153;BME280;66124;51.146;17.072;2023-03-14T08:42:46;98162.10;;;11.07;62.34
77153;BME280;66124;51.146;17.072;2023-03-14T08:45:17;98168.77;;;11.06;62.29
77153;BME280;66124;51.146;17.072;2023-03-14T08:47:46;98175.42;;;11.03;62.59
77153;BME280;66124;51.146;17.072;2023-03-14T08:50:16;98184.42;;;11.02;62.97
77153;BME280;66124;51.146;17.072;2023-03-14T08:52:45;98190.58;;;11.02;63.20
77153;BME280;66124;51.146;17.072;2023-03-14T08:55:14;98193.02;;;11.02;63.58
77153;BME280;66124;51.146;17.072;2023-03-14T08:57:44;98193.45;;;11.00;63.75
77153;BME280;66124;51.146;17.072;2023-03-14T09:00:16;98190.79;;;11.02;63.60
77153;BME280;66124;51.146;17.072;2023-03-14T09:02:46;98185.07;;;11.03;64.06
77153;BME280;66124;51.146;17.072;2023-03-14T09:05:16;98174.48;;;11.04;64.12
77153;BME280;66124;51.146;17.072;2023-03-14T09:07:45;98167.58;;;11.07;64.13
77153;BME280;66124;51.146;17.072;2023-03-14T09:10:15;98170.40;;;11.10;64.29
77153;BME280;66124;51.146;17.072;2023-03-14T09:12:44;98176.75;;;11.14;64.03
77153;BME280;66124;51.146;17.072;2023-03-14T09:15:14;98177.33;;;11.18;64.03
77153;BME280;66124;51.146;17.072;2023-03-14T09:17:45;98175.62;;;11.23;64.24
77153;BME280;66124;51.146;17.072;2023-03-14T09:20:14;98172.95;;;11.27;64.40
77153;BME280;66124;51.146;17.072;2023-03-14T09:22:44;98174.02;;;11.30;64.35
77153;BME280;66124;51.146;17.072;2023-03-14T09:25:13;98173.17;;;11.33;64.16
77153;BME280;66124;51.146;17.072;2023-03-14T09:27:42;98170.01;;;11.35;64.03
77153;BME280;66124;51.146;17.072;2023-03-14T09:30:13;98168.66;;;11.39;64.09
77153;BME280;66124;51.146;17.072;2023-03-14T09:32:41;98173.04;;;11.44;63.95
77153;BME280;66124;51.146;17.072;2023-03-14T09:40:33;98192.51;;;11.55;63.71
77153;BME280;66124;51.146;17.072;2023-03-14T09:43:03;98195.95;;;11.53;63.50
77153;BME280;66124;51.146;17.072;2023-03-14T09:45:35;98202.59;;;11.52;63.02
77153;BME280;66124;51.146;17.072;2023-03-14T09:48:09;98215.05;;;11.50;63.22
77153;BME280;66124;51.146;17.072;2023-03-14T09:50:45;98220.00;;;11.49;63.14
77153;BME280;66124;51.146;17.072;2023-03-14T09:53:18;98226.65;;;11.47;62.79
77153;BME280;66124;51.146;17.072;2023-03-14T09:55:50;98230.42;;;11.45;62.82
77153;BME280;66124;51.146;17.072;2023-03-14T09:58:22;98227.26;;;11.43;62.74
77153;BME280;66124;51.146;17.072;2023-03-14T10:00:53;98223.18;;;11.40;63.16
77153;BME280;66124;51.146;17.072;2023-03-14T10:03:28;98227.25;;;11.37;63.03
77153;BME280;66124;51.146;17.072;2023-03-14T10:05:59;98220.14;;;11.35;63.11
77153;BME280;66124;51.146;17.072;2023-03-14T10:08:29;98220.79;;;11.33;63.07
77153;BME280;66124;51.146;17.072;2023-03-14T10:10:59;98223.70;;;11.34;63.38
77153;BME280;66124;51.146;17.072;2023-03-14T10:13:29;98223.53;;;11.36;63.43
77153;BME280;66124;51.146;17.072;2023-03-14T10:16:01;98220.91;;;11.39;63.52
77153;BME280;66124;51.146;17.072;2023-03-14T10:18:32;98218.36;;;11.43;63.58
77153;BME280;66124;51.146;17.072;2023-03-14T10:21:09;98219.33;;;11.47;63.49
77153;BME280;66124;51.146;17.072;2023-03-14T10:23:46;98215.93;;;11.51;63.67
77153;BME280;66124;51.146;17.072;2023-03-14T10:26:17;98214.76;;;11.56;63.76
77153;BME280;66124;51.146;17.072;2023-03-14T10:28:49;98210.09;;;11.64;63.73
77153;BME280;66124;51.146;17.072;2023-03-14T10:31:25;98206.66;;;11.75;63.53
77153;BME280;66124;51.146;17.072;2023-03-14T10:34:03;98209.09;;;11.87;63.84
77153;BME280;66124;51.146;17.072;2023-03-14T10:36:33;98214.24;;;12.01;63.74
77153;BME280;66124;51.146;17.072;2023-03-14T10:39:24;98210.91;;;12.13;63.85
77153;BME280;66124;51.146;17.072;2023-03-14T10:42:01;98209.93;;;12.26;63.39
77153;BME280;66124;51.146;17.072;2023-03-14T10:44:32;98201.02;;;12.36;63.31
77153;BME280;66124;51.146;17.072;2023-03-14T10:47:04;98197.75;;;12.47;63.53
77153;BME280;66124;51.146;17.072;2023-03-14T10:49:35;98194.87;;;12.55;63.06
77153;BME280;66124;51.146;17.072;2023-03-14T10:52:12;98194.95;;;12.61;62.94
77153;BME280;66124;51.146;17.072;2023-03-14T11:05:30;98182.66;;;12.97;62.51
77153;BME280;66124;51.146;17.072;2023-03-14T11:08:06;98186.86;;;13.08;62.27
77153;BME280;66124;51.146;17.072;2023-03-14T11:10:37;98185.30;;;13.22;62.33
77153;BME280;66124;51.146;17.072;2023-03-14T11:13:17;98182.39;;;13.35;61.93
77153;BME280;66124;51.146;17.072;2023-03-14T11:16:00;98179.73;;;13.47;61.62
77153;BME280;66124;51.146;17.072;2023-03-14T11:18:48;98178.18;;;13.54;61.62
77153;BME280;66124;51.146;17.072;2023-03-14T11:21:24;98174.13;;;13.63;61.26
77153;BME280;66124;51.146;17.072;2023-03-14T11:24:11;98166.40;;;13.68;61.00
77153;BME280;66124;51.146;17.072;2023-03-14T11:26:50;98159.14;;;13.71;60.67
77153;BME280;66124;51.146;17.072;2023-03-14T11:29:28;98152.73;;;13.72;60.04
77153;BME280;66124;51.146;17.072;2023-03-14T11:32:02;98149.10;;;13.70;60.25
77153;BME280;66124;51.146;17.072;2023-03-14T11:34:40;98144.04;;;13.71;60.01
77153;BME280;66124;51.146;17.072;2023-03-14T11:37:20;98140.91;;;13.76;60.03
77153;BME280;66124;51.146;17.072;2023-03-14T11:39:58;98141.21;;;13.80;60.12
77153;BME280;66124;51.146;17.072;2023-03-14T11:42:30;98139.16;;;13.82;60.09
77153;BME280;66124;51.146;17.072;2023-03-14T11:45:02;98138.89;;;13.83;60.31
77153;BME280;66124;51.146;17.072;2023-03-14T11:47:34;98146.02;;;13.85;60.33
77153;BME280;66124;51.146;17.072;2023-03-14T11:50:14;98152.70;;;13.85;60.43
77153;BME280;66124;51.146;17.072;2023-03-14T11:52:49;98147.21;;;13.82;59.99
77153;BME280;66124;51.146;17.072;2023-03-14T11:55:21;98132.27;;;13.78;60.08
77153;BME280;66124;51.146;17.072;2023-03-14T11:57:53;98131.96;;;13.73;59.97
77153;BME280;66124;51.146;17.072;2023-03-14T12:00:26;98133.34;;;13.72;59.84
77153;BME280;66124;51.146;17.072;2023-03-14T12:02:59;98128.03;;;13.71;59.59
77153;BME280;66124;51.146;17.072;2023-03-14T12:05:42;98135.88;;;13.72;59.47
77153;BME280;66124;51.146;17.072;2023-03-14T12:11:34;98138.66;;;13.70;58.93
77153;BME280;66124;51.146;17.072;2023-03-14T12:14:18;98136.22;;;13.63;59.02
77153;BME280;66124;51.146;17.072;2023-03-14T12:16:47;98134.52;;;13.63;59.50
77153;BME280;66124;51.146;17.072;2023-03-14T12:24:32;98133.19;;;13.79;59.70
77153;BME280;66124;51.146;17.072;2023-03-14T12:27:04;98131.30;;;13.75;59.70
77153;BME280;66124;51.146;17.072;2023-03-14T12:30:00;98133.61;;;13.74;59.85
77153;BME280;66124;51.146;17.072;2023-03-14T12:32:30;98127.41;;;13.66;60.05
77153;BME280;66124;51.146;17.072;2023-03-14T12:35:30;98126.60;;;13.62;60.06
77153;BME280;66124;51.146;17.072;2023-03-14T12:38:04;98125.41;;;13.58;60.34
77153;BME280;66124;51.146;17.072;2023-03-14T12:40:42;98130.06;;;13.57;60.58
77153;BME280;66124;51.146;17.072;2023-03-14T12:43:28;98125.77;;;13.57;60.69
77153;BME280;66124;51.146;17.072;2023-03-14T12:46:20;98123.44;;;13.57;60.49
77153;BME280;66124;51.146;17.072;2023-03-14T12:48:53;98122.78;;;13.59;60.78
77153;BME280;66124;51.146;17.072;2023-03-14T12:51:33;98118.91;;;13.60;60.87
77153;BME280;66124;51.146;17.072;2023-03-14T12:57:13;98126.67;;;13.74;60.57
77153;BME280;66124;51.146;17.072;2023-03-14T12:59:51;98124.23;;;13.77;60.77
77153;BME280;66124;51.146;17.072;2023-03-14T13:02:28;98118.73;;;13.79;60.79
77153;BME280;66124;51.146;17.072;2023-03-14T13:05:05;98114.30;;;13.82;60.55
77153;BME280;66124;51.146;17.072;2023-03-14T13:08:06;98112.94;;;13.83;60.83
77153;BME280;66124;51.146;17.072;2023-03-14T13:10:44;98112.63;;;13.83;60.52
77153;BME280;66124;51.146;17.072;2023-03-14T13:13:21;98118.98;;;13.79;60.80
77153;BME280;66124;51.146;17.072;2023-03-14T13:15:55;98118.66;;;13.72;60.75
77153;BME280;66124;51.146;17.072;2023-03-14T13:18:28;98112.96;;;13.63;61.04
77153;BME280;66124;51.146;17.072;2023-03-14T13:21:01;98110.02;;;13.56;61.15
77153;BME280;66124;51.146;17.072;2023-03-14T13:23:33;98105.75;;;13.51;61.10
77153;BME280;66124;51.146;17.072;2023-03-14T13:26:06;98102.17;;;13.48;61.04
77153;BME280;66124;51.146;17.072;2023-03-14T13:28:39;98100.71;;;13.46;61.31
77153;BME280;66124;51.146;17.072;2023-03-14T13:31:20;98099.20;;;13.44;61.26
77153;BME280;66124;51.146;17.072;2023-03-14T13:33:59;98100.79;;;13.43;61.38
77153;BME280;66124;51.146;17.072;2023-03-14T13:41:43;98102.36;;;13.47;61.70
77153;BME280;66124;51.146;17.072;2023-03-14T13:44:18;98104.95;;;13.47;61.51
77153;BME280;66124;51.146;17.072;2023-03-14T13:46:52;98101.30;;;13.42;61.48
77153;BME280;66124;51.146;17.072;2023-03-14T13:49:27;98096.25;;;13.40;61.44
77153;BME280;66124;51.146;17.072;2023-03-14T13:51:58;98096.59;;;13.37;61.87
77153;BME280;66124;51.146;17.072;2023-03-14T13:54:28;98092.70;;;13.35;61.73
77153;BME280;66124;51.146;17.072;2023-03-14T13:57:04;98095.48;;;13.32;61.81
77153;BME280;66124;51.146;17.072;2023-03-14T13:59:35;98100.09;;;13.27;61.97
77153;BME280;66124;51.146;17.072;2023-03-14T14:02:12;98081.27;;;13.11;62.17
77153;BME280;66124;51.146;17.072;2023-03-14T14:04:42;98096.45;;;13.18;62.12
77153;BME280;66124;51.146;17.072;2023-03-14T14:07:15;98096.84;;;13.16;62.31
77153;BME280;66124;51.146;17.072;2023-03-14T14:09:48;98096.70;;;13.14;62.73
77153;BME280;66124;51.146;17.072;2023-03-14T14:12:20;98098.46;;;13.09;62.74
77153;BME280;66124;51.146;17.072;2023-03-14T14:14:53;98101.34;;;13.05;62.77
77153;BME280;66124;51.146;17.072;2023-03-14T14:17:27;98099.86;;;13.01;62.95
77153;BME280;66124;51.146;17.072;2023-03-14T14:20:00;98096.79;;;12.97;63.27